Nagaleader — VRDD5 — position and weather

sailwx.info

Track history (hours):
 
Tides and Currents Weather Stations Pressure Air Temp Water Temp Dewpoint Dewpoint Depression Visibility Wind Speed Wind Dir Waves Ship Positions

Nagaleader

Last reported at 2018-Apr-27 06:30 UTC. Time now 2018-Apr-27 06:33 UTC.
Position N 22°45' E 120°08'.

Length 113 m; draft 6.3 m.

Type: Cargo ship. MMSI: 477926700.

Date/timePositionNaut miles runAvg speedWind from/ knotsBaromVisibWave heightAir tempDewpointWater temp
2018-Apr-27 06:30N 22°45' E 120°08'611.6
2018-Apr-27 05:59N 22°39' E 120°10'511.5
2018-Apr-27 05:30N 22°34' E 120°13'510.1
2018-Apr-27 05:00N 22°33' E 120°18'2 0.2
2018-Apr-26 18:59N 22°33' E 120°20'3 5.5
2018-Apr-26 18:30N 22°33' E 120°17'4 7.7
2018-Apr-26 18:00N 22°32' E 120°13'2 3.0
2018-Apr-26 17:30N 22°32' E 120°12'0 0.6
2018-Apr-26 17:00N 22°31' E 120°11'0 0.6
2018-Apr-26 16:30N 22°31' E 120°11'0 0.8
2018-Apr-26 16:00N 22°31' E 120°11'3 6.7
2018-Apr-26 15:30N 22°34' E 120°11'611.7
2018-Apr-26 15:00N 22°39' E 120°09'612.5
2018-Apr-26 14:30N 22°45' E 120°06'  
2018-Apr-23 18:37N 23°39' E 119°55'516.0
2018-Apr-23 18:17N 23°34' E 119°55'515.4
2018-Apr-23 17:58N 23°29' E 119°56'1014.9
2018-Apr-23 17:18N 23°19' E 119°57'714.2
2018-Apr-23 16:47N 23°12' E 119°58'513.5
2018-Apr-23 16:24N 23°07' E 119°58'513.1
2018-Apr-23 16:00N 23°02' E 119°60'612.3
2018-Apr-23 15:31N 22°56' E 120°02'611.7
2018-Apr-23 15:00N 22°51' E 120°05'611.7
2018-Apr-23 14:29N 22°45' E 120°08'612.4
2018-Apr-23 14:00N 22°40' E 120°10'611.7
2018-Apr-23 13:31N 22°34' E 120°12'5 9.9
2018-Apr-23 13:00N 22°33' E 120°18'2 4.7
2018-Apr-23 12:30N 22°33' E 120°20'0 0.1
2018-Apr-23 12:00N 22°33' E 120°20'0 0.1
2018-Apr-23 11:30N 22°33' E 120°20'0 0.0
2018-Apr-23 11:00N 22°33' E 120°20'0 0.1
2018-Apr-23 10:30N 22°33' E 120°20'0 0.0
2018-Apr-23 09:57N 22°33' E 120°20'0 0.0
2018-Apr-23 09:27N 22°33' E 120°20'0 0.0
2018-Apr-23 09:00N 22°33' E 120°20'0 0.0
2018-Apr-23 08:30N 22°33' E 120°20'0 0.0
2018-Apr-23 08:00N 22°33' E 120°20'0 0.1
2018-Apr-23 07:27N 22°33' E 120°20'0 0.1
2018-Apr-23 07:00N 22°33' E 120°20'0 0.0
2018-Apr-23 06:30N 22°33' E 120°20'0 0.0
2018-Apr-23 06:00N 22°33' E 120°20'0 0.0
2018-Apr-23 05:30N 22°33' E 120°20'0 0.0
2018-Apr-23 05:00N 22°33' E 120°20'0 0.0
2018-Apr-23 04:30N 22°33' E 120°20'0 0.0
2018-Apr-23 04:00N 22°33' E 120°20'0 0.0
2018-Apr-23 03:30N 22°33' E 120°20'0 0.0
2018-Apr-23 03:00N 22°33' E 120°20'0 0.0
2018-Apr-23 02:30N 22°33' E 120°20'0 0.0
2018-Apr-23 01:57N 22°33' E 120°20'0 0.0
2018-Apr-23 01:30N 22°33' E 120°20'1 2.2
2018-Apr-23 01:00N 22°33' E 120°19'0 0.6
2018-Apr-23 00:30N 22°34' E 120°19'0 0.0
2018-Apr-22 23:58N 22°34' E 120°19'0 0.0
2018-Apr-22 23:28N 22°34' E 120°19'0 0.0
2018-Apr-22 23:00N 22°34' E 120°19'0 0.0
2018-Apr-22 22:28N 22°34' E 120°19'0 0.0
2018-Apr-22 22:00N 22°34' E 120°19'0 0.0
2018-Apr-22 21:30N 22°34' E 120°19'0 0.0
2018-Apr-22 21:00N 22°34' E 120°19'0 0.0
2018-Apr-22 20:30N 22°34' E 120°19'0 0.0
2018-Apr-22 20:00N 22°34' E 120°19'0 0.0
2018-Apr-22 19:31N 22°34' E 120°19'0 0.0
2018-Apr-22 19:00N 22°34' E 120°19'0 0.0
2018-Apr-22 18:30N 22°34' E 120°19'0 0.0
2018-Apr-22 18:00N 22°34' E 120°19'0 0.0
2018-Apr-22 17:30N 22°34' E 120°19'0 0.0
2018-Apr-22 16:48N 22°34' E 120°19'0 0.0
2018-Apr-22 16:30N 22°34' E 120°19'0 0.0
2018-Apr-22 16:00N 22°34' E 120°19'0 0.7
2018-Apr-22 15:30N 22°33' E 120°19'4 7.2
2018-Apr-22 15:01N 22°32' E 120°15'510.2
2018-Apr-22 14:30N 22°35' E 120°11'612.1
2018-Apr-22 14:00N 22°41' E 120°09'611.9
2018-Apr-22 13:30N 22°46' E 120°06'612.7
2018-Apr-22 13:00N 22°52' E 120°04'812.9
2018-Apr-22 12:24N 22°60' E 120°00'1012.7
2018-Apr-22 11:38N 23°09' E 119°58'212.7
2018-Apr-22 11:29N 23°11' E 119°58'612.5
2018-Apr-22 11:00N 23°17' E 119°57'612.4
2018-Apr-22 10:31N 23°23' E 119°56'911.8
2018-Apr-22 09:44N 23°32' E 119°55'311.4
2018-Apr-22 09:30N 23°35' E 119°55'1111.0
2018-Apr-22 08:28N 23°46' E 119°55'610.3
2018-Apr-22 07:55N 23°52' E 119°55'610.1
2018-Apr-22 07:21N 23°57' E 119°56'410.3
2018-Apr-22 07:00N 24°01' E 119°56'710.5
2018-Apr-22 06:18N 24°08' E 119°56'310.7
2018-Apr-22 05:59N 24°12' E 119°56'510.9
2018-Apr-22 05:29N 24°17' E 119°56'611.4
2018-Apr-22 05:00N 24°23' E 119°56'611.5
2018-Apr-22 04:31N 24°28' E 119°57'611.8
2018-Apr-22 04:00N 24°34' E 119°57'3811.3
2018-Apr-22 00:37N 25°13' E 119°58'110.7
2018-Apr-22 00:29N 25°14' E 119°58'77 2.2
2018-Apr-20 13:19N 23°57' E 119°56'1814.1
2018-Apr-20 12:01N 23°39' E 119°55'014.4
2018-Apr-20 12:00N 23°38' E 119°55'713.2
2018-Apr-20 11:30N 23°32' E 119°55'612.5
2018-Apr-20 11:00N 23°26' E 119°56'612.3
2018-Apr-20 10:30N 23°20' E 119°57'711.8
2018-Apr-20 09:57N 23°13' E 119°57'1011.2
2018-Apr-20 09:02N 23°03' E 119°59'210.8
2018-Apr-20 08:52N 23°01' E 119°60'511.2
2018-Apr-20 08:25N 22°57' E 120°02'511.4
2018-Apr-20 08:00N 22°52' E 120°04'510.9
2018-Apr-20 07:30N 22°47' E 120°06'611.5
2018-Apr-20 07:00N 22°42' E 120°09'611.8
2018-Apr-20 06:30N 22°37' E 120°12'510.4
2018-Apr-20 06:00N 22°33' E 120°15'4 8.4
2018-Apr-20 05:30N 22°33' E 120°20'0 0.4
2018-Apr-20 04:59N 22°33' E 120°20'0 0.0
2018-Apr-20 04:29N 22°33' E 120°20'0 0.0
2018-Apr-20 03:59N 22°33' E 120°20'0 0.0
2018-Apr-20 03:29N 22°33' E 120°20'0 0.0
2018-Apr-20 02:59N 22°33' E 120°20'0 0.0
2018-Apr-20 02:29N 22°33' E 120°20'0 0.0
2018-Apr-20 01:59N 22°33' E 120°20'0 0.0
2018-Apr-20 01:29N 22°33' E 120°20'0 0.0
2018-Apr-20 00:59N 22°33' E 120°20'0 0.0
2018-Apr-20 00:29N 22°33' E 120°20'0 0.0
2018-Apr-19 23:59N 22°33' E 120°20'0 0.0
2018-Apr-19 23:29N 22°33' E 120°20'0 0.0
2018-Apr-19 22:59N 22°33' E 120°20'0 0.0
2018-Apr-19 22:29N 22°33' E 120°20'0 0.0
2018-Apr-19 21:59N 22°33' E 120°20'0 0.0
2018-Apr-19 21:29N 22°33' E 120°20'1 1.1
2018-Apr-19 21:00N 22°33' E 120°19'3 6.2
2018-Apr-19 20:30N 22°32' E 120°16'0 0.8
2018-Apr-19 19:58N 22°32' E 120°16'0 0.0
2018-Apr-19 19:28N 22°32' E 120°16'0 0.0
2018-Apr-19 18:58N 22°32' E 120°16'0 0.0
2018-Apr-19 18:28N 22°32' E 120°16'0 0.0
2018-Apr-19 17:55N 22°32' E 120°16'0 0.0
2018-Apr-19 17:28N 22°32' E 120°16'0 0.0
2018-Apr-19 16:58N 22°32' E 120°16'0 0.0
2018-Apr-19 16:28N 22°32' E 120°16'0 0.0
2018-Apr-19 15:58N 22°32' E 120°16'0 0.0
2018-Apr-19 15:28N 22°32' E 120°16'0 0.0
2018-Apr-19 14:58N 22°32' E 120°16'0 0.0
2018-Apr-19 14:28N 22°32' E 120°16'0 0.0
2018-Apr-19 13:58N 22°32' E 120°16'0 0.0
2018-Apr-19 13:28N 22°32' E 120°16'0 0.0
2018-Apr-19 12:55N 22°32' E 120°16'0 0.1
2018-Apr-19 12:30N 22°32' E 120°16'3 6.0
2018-Apr-19 12:00N 22°33' E 120°13'611.2
2018-Apr-19 11:30N 22°37' E 120°10'611.5
2018-Apr-19 10:59N 22°43' E 120°08'611.6
2018-Apr-19 10:30N 22°48' E 120°06'612.3
2018-Apr-19 10:00N 22°54' E 120°04'713.2
2018-Apr-19 09:29N 23°01' E 120°01'613.4
2018-Apr-19 09:00N 23°07' E 119°58'713.4
2018-Apr-19 08:30N 23°13' E 119°58'1113.1
2018-Apr-19 07:40N 23°24' E 119°55'413.0
2018-Apr-19 07:22N 23°28' E 119°55'  
Track history (hours):
 
Tides and Currents Weather Stations Pressure Air Temp Water Temp Dewpoint Dewpoint Depression Visibility Wind Speed Wind Dir Waves Ship Positions

Nagaleader

Last reported at 2018-Apr-27 06:30 UTC. Time now 2018-Apr-27 06:33 UTC.
Position N 22°45' E 120°08'.

Length 113 m; draft 6.3 m.

Type: Cargo ship. MMSI: 477926700.

Date/timePositionNaut miles runAvg speedWind from/ knotsBaromVisibWave heightAir tempDewpointWater temp
2018-Apr-27 06:30N 22°45' E 120°08'611.6
2018-Apr-27 05:59N 22°39' E 120°10'511.5
2018-Apr-27 05:30N 22°34' E 120°13'510.1
2018-Apr-27 05:00N 22°33' E 120°18'2 0.2
2018-Apr-26 18:59N 22°33' E 120°20'3 5.5
2018-Apr-26 18:30N 22°33' E 120°17'4 7.7
2018-Apr-26 18:00N 22°32' E 120°13'2 3.0
2018-Apr-26 17:30N 22°32' E 120°12'0 0.6
2018-Apr-26 17:00N 22°31' E 120°11'0 0.6
2018-Apr-26 16:30N 22°31' E 120°11'0 0.8
2018-Apr-26 16:00N 22°31' E 120°11'3 6.7
2018-Apr-26 15:30N 22°34' E 120°11'611.7
2018-Apr-26 15:00N 22°39' E 120°09'612.5
2018-Apr-26 14:30N 22°45' E 120°06'  
2018-Apr-23 18:37N 23°39' E 119°55'516.0
2018-Apr-23 18:17N 23°34' E 119°55'515.4
2018-Apr-23 17:58N 23°29' E 119°56'1014.9
2018-Apr-23 17:18N 23°19' E 119°57'714.2
2018-Apr-23 16:47N 23°12' E 119°58'513.5
2018-Apr-23 16:24N 23°07' E 119°58'513.1
2018-Apr-23 16:00N 23°02' E 119°60'612.3
2018-Apr-23 15:31N 22°56' E 120°02'611.7
2018-Apr-23 15:00N 22°51' E 120°05'611.7
2018-Apr-23 14:29N 22°45' E 120°08'612.4
2018-Apr-23 14:00N 22°40' E 120°10'611.7
2018-Apr-23 13:31N 22°34' E 120°12'5 9.9
2018-Apr-23 13:00N 22°33' E 120°18'2 4.7
2018-Apr-23 12:30N 22°33' E 120°20'0 0.1
2018-Apr-23 12:00N 22°33' E 120°20'0 0.1
2018-Apr-23 11:30N 22°33' E 120°20'0 0.0
2018-Apr-23 11:00N 22°33' E 120°20'0 0.1
2018-Apr-23 10:30N 22°33' E 120°20'0 0.0
2018-Apr-23 09:57N 22°33' E 120°20'0 0.0
2018-Apr-23 09:27N 22°33' E 120°20'0 0.0
2018-Apr-23 09:00N 22°33' E 120°20'0 0.0
2018-Apr-23 08:30N 22°33' E 120°20'0 0.0
2018-Apr-23 08:00N 22°33' E 120°20'0 0.1
2018-Apr-23 07:27N 22°33' E 120°20'0 0.1
2018-Apr-23 07:00N 22°33' E 120°20'0 0.0
2018-Apr-23 06:30N 22°33' E 120°20'0 0.0
2018-Apr-23 06:00N 22°33' E 120°20'0 0.0
2018-Apr-23 05:30N 22°33' E 120°20'0 0.0
2018-Apr-23 05:00N 22°33' E 120°20'0 0.0
2018-Apr-23 04:30N 22°33' E 120°20'0 0.0
2018-Apr-23 04:00N 22°33' E 120°20'0 0.0
2018-Apr-23 03:30N 22°33' E 120°20'0 0.0
2018-Apr-23 03:00N 22°33' E 120°20'0 0.0
2018-Apr-23 02:30N 22°33' E 120°20'0 0.0
2018-Apr-23 01:57N 22°33' E 120°20'0 0.0
2018-Apr-23 01:30N 22°33' E 120°20'1 2.2
2018-Apr-23 01:00N 22°33' E 120°19'0 0.6
2018-Apr-23 00:30N 22°34' E 120°19'0 0.0
2018-Apr-22 23:58N 22°34' E 120°19'0 0.0
2018-Apr-22 23:28N 22°34' E 120°19'0 0.0
2018-Apr-22 23:00N 22°34' E 120°19'0 0.0
2018-Apr-22 22:28N 22°34' E 120°19'0 0.0
2018-Apr-22 22:00N 22°34' E 120°19'0 0.0
2018-Apr-22 21:30N 22°34' E 120°19'0 0.0
2018-Apr-22 21:00N 22°34' E 120°19'0 0.0
2018-Apr-22 20:30N 22°34' E 120°19'0 0.0
2018-Apr-22 20:00N 22°34' E 120°19'0 0.0
2018-Apr-22 19:31N 22°34' E 120°19'0 0.0
2018-Apr-22 19:00N 22°34' E 120°19'0 0.0
2018-Apr-22 18:30N 22°34' E 120°19'0 0.0
2018-Apr-22 18:00N 22°34' E 120°19'0 0.0
2018-Apr-22 17:30N 22°34' E 120°19'0 0.0
2018-Apr-22 16:48N 22°34' E 120°19'0 0.0
2018-Apr-22 16:30N 22°34' E 120°19'0 0.0
2018-Apr-22 16:00N 22°34' E 120°19'0 0.7
2018-Apr-22 15:30N 22°33' E 120°19'4 7.2
2018-Apr-22 15:01N 22°32' E 120°15'510.2
2018-Apr-22 14:30N 22°35' E 120°11'612.1
2018-Apr-22 14:00N 22°41' E 120°09'611.9
2018-Apr-22 13:30N 22°46' E 120°06'612.7
2018-Apr-22 13:00N 22°52' E 120°04'812.9
2018-Apr-22 12:24N 22°60' E 120°00'1012.7
2018-Apr-22 11:38N 23°09' E 119°58'212.7
2018-Apr-22 11:29N 23°11' E 119°58'612.5
2018-Apr-22 11:00N 23°17' E 119°57'612.4
2018-Apr-22 10:31N 23°23' E 119°56'911.8
2018-Apr-22 09:44N 23°32' E 119°55'311.4
2018-Apr-22 09:30N 23°35' E 119°55'1111.0
2018-Apr-22 08:28N 23°46' E 119°55'610.3
2018-Apr-22 07:55N 23°52' E 119°55'610.1
2018-Apr-22 07:21N 23°57' E 119°56'410.3
2018-Apr-22 07:00N 24°01' E 119°56'710.5
2018-Apr-22 06:18N 24°08' E 119°56'310.7
2018-Apr-22 05:59N 24°12' E 119°56'510.9
2018-Apr-22 05:29N 24°17' E 119°56'611.4
2018-Apr-22 05:00N 24°23' E 119°56'611.5
2018-Apr-22 04:31N 24°28' E 119°57'611.8
2018-Apr-22 04:00N 24°34' E 119°57'3811.3
2018-Apr-22 00:37N 25°13' E 119°58'110.7
2018-Apr-22 00:29N 25°14' E 119°58'77 2.2
2018-Apr-20 13:19N 23°57' E 119°56'1814.1
2018-Apr-20 12:01N 23°39' E 119°55'014.4
2018-Apr-20 12:00N 23°38' E 119°55'713.2
2018-Apr-20 11:30N 23°32' E 119°55'612.5
2018-Apr-20 11:00N 23°26' E 119°56'612.3
2018-Apr-20 10:30N 23°20' E 119°57'711.8
2018-Apr-20 09:57N 23°13' E 119°57'1011.2
2018-Apr-20 09:02N 23°03' E 119°59'210.8
2018-Apr-20 08:52N 23°01' E 119°60'511.2
2018-Apr-20 08:25N 22°57' E 120°02'511.4
2018-Apr-20 08:00N 22°52' E 120°04'510.9
2018-Apr-20 07:30N 22°47' E 120°06'611.5
2018-Apr-20 07:00N 22°42' E 120°09'611.8
2018-Apr-20 06:30N 22°37' E 120°12'510.4
2018-Apr-20 06:00N 22°33' E 120°15'4 8.4
2018-Apr-20 05:30N 22°33' E 120°20'0 0.4
2018-Apr-20 04:59N 22°33' E 120°20'0 0.0
2018-Apr-20 04:29N 22°33' E 120°20'0 0.0
2018-Apr-20 03:59N 22°33' E 120°20'0 0.0
2018-Apr-20 03:29N 22°33' E 120°20'0 0.0
2018-Apr-20 02:59N 22°33' E 120°20'0 0.0
2018-Apr-20 02:29N 22°33' E 120°20'0 0.0
2018-Apr-20 01:59N 22°33' E 120°20'0 0.0
2018-Apr-20 01:29N 22°33' E 120°20'0 0.0
2018-Apr-20 00:59N 22°33' E 120°20'0 0.0
2018-Apr-20 00:29N 22°33' E 120°20'0 0.0
2018-Apr-19 23:59N 22°33' E 120°20'0 0.0
2018-Apr-19 23:29N 22°33' E 120°20'0 0.0
2018-Apr-19 22:59N 22°33' E 120°20'0 0.0
2018-Apr-19 22:29N 22°33' E 120°20'0 0.0
2018-Apr-19 21:59N 22°33' E 120°20'0 0.0
2018-Apr-19 21:29N 22°33' E 120°20'1 1.1
2018-Apr-19 21:00N 22°33' E 120°19'3 6.2
2018-Apr-19 20:30N 22°32' E 120°16'0 0.8
2018-Apr-19 19:58N 22°32' E 120°16'0 0.0
2018-Apr-19 19:28N 22°32' E 120°16'0 0.0
2018-Apr-19 18:58N 22°32' E 120°16'0 0.0
2018-Apr-19 18:28N 22°32' E 120°16'0 0.0
2018-Apr-19 17:55N 22°32' E 120°16'0 0.0
2018-Apr-19 17:28N 22°32' E 120°16'0 0.0
2018-Apr-19 16:58N 22°32' E 120°16'0 0.0
2018-Apr-19 16:28N 22°32' E 120°16'0 0.0
2018-Apr-19 15:58N 22°32' E 120°16'0 0.0
2018-Apr-19 15:28N 22°32' E 120°16'0 0.0
2018-Apr-19 14:58N 22°32' E 120°16'0 0.0
2018-Apr-19 14:28N 22°32' E 120°16'0 0.0
2018-Apr-19 13:58N 22°32' E 120°16'0 0.0
2018-Apr-19 13:28N 22°32' E 120°16'0 0.0
2018-Apr-19 12:55N 22°32' E 120°16'0 0.1
2018-Apr-19 12:30N 22°32' E 120°16'3 6.0
2018-Apr-19 12:00N 22°33' E 120°13'611.2
2018-Apr-19 11:30N 22°37' E 120°10'611.5
2018-Apr-19 10:59N 22°43' E 120°08'611.6
2018-Apr-19 10:30N 22°48' E 120°06'612.3
2018-Apr-19 10:00N 22°54' E 120°04'713.2
2018-Apr-19 09:29N 23°01' E 120°01'613.4
2018-Apr-19 09:00N 23°07' E 119°58'713.4
2018-Apr-19 08:30N 23°13' E 119°58'1113.1
2018-Apr-19 07:40N 23°24' E 119°55'413.0
2018-Apr-19 07:22N 23°28' E 119°55'  

Dump ship's entire track history